Time;durP1;ratioP1;P1;durP2;ratioP2;P2;SDS_P1;SDS_P2;PMS_P1;PMS_P2;Temp;Humidity;BMP_temperature;BMP_pressure;BME280_temperature;BME280_humidity;BME280_pressure;Samples;Min_cycle;Max_cycle;Signal;HPM_P1;HPM_P2
2022/01/29 00:02:04;;;;;;;;;;;6.60;99.90;;;;;;4918726;29;20424;-92
2022/01/29 00:04:32;;;;;;;;;;;6.70;99.90;;;;;;4925793;29;19978;-90
2022/01/29 00:06:58;;;;;;;;;;;6.70;99.90;;;;;;4922862;29;19958;-85
2022/01/29 00:09:23;;;;;;;;;;;6.70;99.90;;;;;;4931478;29;19949;-86
2022/01/29 00:11:49;;;;;;;;;;;6.50;99.90;;;;;;4930976;29;19966;-89
2022/01/29 00:14:14;;;;;;;;;;;6.70;99.90;;;;;;4922047;29;19938;-88
2022/01/29 00:16:44;;;;;;;;;;;6.70;99.90;;;;;;4946233;28;19942;-92
2022/01/29 00:19:09;;;;;;;;;;;6.70;99.90;;;;;;4928897;29;20052;-88
2022/01/29 00:21:44;;;;;;;;;;;7.40;99.90;;;;;;4941586;29;20367;-85
2022/01/29 00:24:19;;;;;;;;;;;6.70;99.90;;;;;;4925326;29;19956;-88
2022/01/29 00:26:44;;;;;;;;;;;7.10;99.90;;;;;;4924266;29;19968;-90
2022/01/29 00:29:20;;;;;;;;;;;6.80;99.90;;;;;;4918034;29;20270;-89
2022/01/29 00:31:54;;;;;;;;;;;7.30;99.90;;;;;;4926622;29;19947;-87
2022/01/29 00:34:20;;;;;;;;;;;6.80;99.90;;;;;;4934133;29;20033;-87
2022/01/29 00:36:46;;;;;;;;;;;7.10;99.90;;;;;;4922707;29;20033;-88
2022/01/29 00:39:17;;;;;;;;;;;7.60;99.90;;;;;;4931500;29;19952;-84
2022/01/29 00:41:43;;;;;;;;;;;6.90;99.90;;;;;;4933808;29;20382;-85
2022/01/29 00:44:18;;;;;;;;;;;6.90;99.90;;;;;;4939851;29;19985;-87
2022/01/29 00:46:43;;;;;;;;;;;6.90;99.90;;;;;;4913166;29;20390;-89
2022/01/29 00:49:09;;;;;;;;;;;6.90;99.90;;;;;;4931223;29;19955;-85
2022/01/29 00:51:35;;;;;;;;;;;6.90;99.90;;;;;;4924742;29;19960;-84
2022/01/29 00:54:00;;;;;;;;;;;6.90;99.90;;;;;;4923398;29;19945;-93
2022/01/29 00:56:26;;;;;;;;;;;6.90;99.90;;;;;;4933702;29;20133;-88
2022/01/29 00:58:55;;;;;;;;;;;7.30;99.90;;;;;;4931879;29;19949;-87
2022/01/29 01:01:20;;;;;;;;;;;6.90;99.90;;;;;;4932276;29;19953;-87
2022/01/29 01:03:46;;;;;;;;;;;6.90;99.90;;;;;;4925980;29;20329;-89
2022/01/29 01:06:11;;;;;;;;;;;7.00;99.90;;;;;;4941933;29;19973;-85
2022/01/29 01:08:37;;;;;;;;;;;7.00;99.90;;;;;;4932598;29;20344;-85
2022/01/29 01:11:04;;;;;;;;;;;8.00;99.90;;;;;;4922723;29;20023;-89
2022/01/29 01:13:32;;;;;;;;;;;7.00;99.90;;;;;;4924109;29;19957;-85
2022/01/29 01:15:58;;;;;;;;;;;7.00;99.90;;;;;;4939281;29;19954;-90
2022/01/29 01:18:27;;;;;;;;;;;7.10;99.90;;;;;;4937083;29;20422;-86
2022/01/29 01:20:53;;;;;;;;;;;7.40;99.90;;;;;;4941050;29;20032;-86
2022/01/29 01:23:19;;;;;;;;;;;7.10;99.90;;;;;;4940673;29;19987;-89
2022/01/29 01:25:45;;;;;;;;;;;7.10;99.90;;;;;;4926371;29;20024;-88
2022/01/29 01:28:12;;;;;;;;;;;7.70;99.90;;;;;;4930153;29;20038;-88
2022/01/29 01:30:43;;;;;;;;;;;7.10;99.90;;;;;;4921109;29;19944;-91
2022/01/29 01:33:09;;;;;;;;;;;7.60;99.90;;;;;;4925786;29;20032;-93
2022/01/29 01:35:42;;;;;;;;;;;7.20;99.90;;;;;;4932654;29;20023;-88
2022/01/29 01:38:40;;;;;;;;;;;7.20;99.90;;;;;;4931478;29;20060;-83
2022/01/29 01:41:10;;;;;;;;;;;7.30;99.90;;;;;;4920711;29;20436;-91
2022/01/29 01:43:35;;;;;;;;;;;7.20;99.90;;;;;;4929482;29;19963;-84
2022/01/29 01:46:19;;;;;;;;;;;7.20;99.90;;;;;;4923414;29;19992;-88
2022/01/29 01:48:44;;;;;;;;;;;7.10;99.90;;;;;;4931039;29;20227;-90
2022/01/29 01:51:13;;;;;;;;;;;7.40;99.90;;;;;;4933651;29;19967;-90
2022/01/29 01:53:45;;;;;;;;;;;6.40;99.90;;;;;;4923549;29;19997;-87
2022/01/29 01:56:10;;;;;;;;;;;7.20;99.90;;;;;;4947183;29;19944;-88
2022/01/29 01:58:37;;;;;;;;;;;8.50;99.90;;;;;;4927839;29;20044;-93
2022/01/29 02:01:21;;;;;;;;;;;7.20;99.90;;;;;;4918184;29;19960;-92
2022/01/29 02:03:55;;;;;;;;;;;7.30;99.90;;;;;;4946419;28;19979;-87
2022/01/29 02:06:26;;;;;;;;;;;7.30;99.90;;;;;;4922103;29;19945;-87
2022/01/29 02:08:59;;;;;;;;;;;7.30;99.90;;;;;;4953166;28;20006;-92
2022/01/29 02:11:25;;;;;;;;;;;6.00;99.90;;;;;;4954731;29;20415;-94
2022/01/29 02:13:51;;;;;;;;;;;7.30;99.90;;;;;;4945862;28;19940;-92
2022/01/29 02:16:17;;;;;;;;;;;7.30;99.90;;;;;;4926231;29;19948;-91
2022/01/29 02:18:42;;;;;;;;;;;7.30;99.90;;;;;;4922196;29;19960;-87
2022/01/29 02:21:08;;;;;;;;;;;7.40;99.90;;;;;;4957242;28;19991;-88
2022/01/29 02:23:37;;;;;;;;;;;8.00;99.90;;;;;;4925091;29;19998;-87
2022/01/29 02:26:02;;;;;;;;;;;7.40;99.90;;;;;;4927184;29;19940;-89
2022/01/29 02:28:28;;;;;;;;;;;7.70;99.90;;;;;;4938159;29;20030;-90
2022/01/29 02:31:03;;;;;;;;;;;6.90;99.90;;;;;;4952323;29;20409;-86
2022/01/29 02:33:30;;;;;;;;;;;7.40;99.90;;;;;;4948135;29;19958;-89
2022/01/29 02:35:58;;;;;;;;;;;7.50;99.90;;;;;;4920035;29;20024;-86
2022/01/29 02:38:28;;;;;;;;;;;7.40;99.90;;;;;;4917175;29;19967;-87
2022/01/29 02:40:57;;;;;;;;;;;8.00;99.90;;;;;;4928935;29;19993;-83
2022/01/29 02:43:27;;;;;;;;;;;9.20;99.90;;;;;;4934802;29;19987;-90
2022/01/29 02:45:55;;;;;;;;;;;7.50;99.90;;;;;;4932744;29;19962;-90
2022/01/29 02:48:30;;;;;;;;;;;7.50;99.90;;;;;;4943153;29;20357;-89
2022/01/29 02:51:10;;;;;;;;;;;7.50;99.90;;;;;;4934599;29;19949;-88
2022/01/29 02:53:36;;;;;;;;;;;7.50;99.90;;;;;;4933130;29;20037;-88
2022/01/29 02:56:01;;;;;;;;;;;8.30;99.90;;;;;;4935316;29;20080;-90
2022/01/29 02:58:36;;;;;;;;;;;7.60;99.90;;;;;;4935892;29;19955;-90
2022/01/29 03:01:08;;;;;;;;;;;6.90;99.90;;;;;;4931493;29;20747;-93
2022/01/29 03:03:34;;;;;;;;;;;7.60;99.90;;;;;;4940146;29;19958;-87
2022/01/29 03:06:02;;;;;;;;;;;7.60;99.90;;;;;;4924314;29;20052;-86
2022/01/29 03:08:46;;;;;;;;;;;7.60;99.90;;;;;;4934891;29;20470;-89
2022/01/29 03:11:19;;;;;;;;;;;7.60;99.90;;;;;;4934975;29;19988;-89
2022/01/29 03:14:10;;;;;;;;;;;7.60;99.90;;;;;;4922691;29;19937;-90
2022/01/29 03:16:35;;;;;;;;;;;7.70;99.90;;;;;;4934677;29;20450;-86
2022/01/29 03:19:26;;;;;;;;;;;7.70;99.90;;;;;;4950749;29;19985;-90
2022/01/29 03:21:52;;;;;;;;;;;7.70;99.90;;;;;;4929345;29;19950;-87
2022/01/29 03:24:17;;;;;;;;;;;7.70;99.90;;;;;;4938320;29;19972;-88
2022/01/29 03:26:43;;;;;;;;;;;7.70;99.90;;;;;;4932328;29;20421;-90
2022/01/29 03:29:09;;;;;;;;;;;7.80;99.90;;;;;;4919667;29;19953;-91
2022/01/29 03:31:34;;;;;;;;;;;7.80;99.90;;;;;;4935877;29;20319;-86
2022/01/29 03:34:00;;;;;;;;;;;7.80;99.90;;;;;;4935613;29;19947;-86
2022/01/29 03:36:26;;;;;;;;;;;7.80;99.90;;;;;;4919286;29;19949;-87
2022/01/29 03:38:51;;;;;;;;;;;7.80;99.90;;;;;;4926650;29;20001;-88
2022/01/29 03:41:17;;;;;;;;;;;7.80;99.90;;;;;;4916333;29;20058;-87
2022/01/29 03:43:49;;;;;;;;;;;8.00;99.90;;;;;;4920289;29;19976;-88
2022/01/29 03:46:15;;;;;;;;;;;7.80;99.90;;;;;;4921781;29;19941;-90
2022/01/29 03:48:40;;;;;;;;;;;9.60;99.90;;;;;;4931291;29;20058;-93
2022/01/29 03:51:09;;;;;;;;;;;7.90;99.90;;;;;;4921020;29;19955;-88
2022/01/29 03:53:35;;;;;;;;;;;7.90;99.90;;;;;;4926152;29;20006;-87
2022/01/29 03:56:00;;;;;;;;;;;7.90;99.90;;;;;;4955418;29;19955;-87
2022/01/29 03:58:26;;;;;;;;;;;7.90;99.90;;;;;;4918838;29;19956;-87
2022/01/29 04:00:51;;;;;;;;;;;7.80;99.90;;;;;;4915378;29;19993;-90
2022/01/29 04:03:17;;;;;;;;;;;7.90;99.90;;;;;;4913275;29;19948;-89
2022/01/29 04:05:48;;;;;;;;;;;7.90;99.90;;;;;;4900673;29;20304;-91
2022/01/29 04:08:17;;;;;;;;;;;7.90;99.90;;;;;;4919050;29;20035;-85
2022/01/29 04:10:42;;;;;;;;;;;7.90;99.90;;;;;;4937975;29;20083;-95
2022/01/29 04:13:13;;;;;;;;;;;8.00;99.90;;;;;;4921008;29;19947;-86
2022/01/29 04:15:53;;;;;;;;;;;7.90;99.90;;;;;;4916674;29;19953;-92
2022/01/29 04:18:35;;;;;;;;;;;8.00;99.90;;;;;;4919751;29;19961;-89
2022/01/29 04:21:03;;;;;;;;;;;8.60;99.90;;;;;;4925340;29;19960;-93
2022/01/29 04:23:28;;;;;;;;;;;8.00;99.90;;;;;;4921164;29;19997;-92
2022/01/29 04:25:54;;;;;;;;;;;8.70;99.90;;;;;;4940927;29;20016;-88
2022/01/29 04:28:23;;;;;;;;;;;8.00;99.90;;;;;;4920495;29;19952;-91
2022/01/29 04:30:57;;;;;;;;;;;8.20;99.90;;;;;;4935965;29;19985;-94
2022/01/29 04:35:51;;;;;;;;;;;8.00;99.90;;;;;;4927974;29;19950;-89
2022/01/29 04:38:18;;;;;;;;;;;8.00;99.90;;;;;;4933240;29;19951;-89
2022/01/29 04:40:46;;;;;;;;;;;8.10;99.90;;;;;;4926202;29;19949;-90
2022/01/29 04:43:24;;;;;;;;;;;8.20;99.90;;;;;;4917187;29;19952;-94
2022/01/29 04:45:49;;;;;;;;;;;8.10;99.90;;;;;;4914822;29;20341;-90
2022/01/29 04:48:15;;;;;;;;;;;8.10;99.90;;;;;;4930541;29;19952;-95
2022/01/29 04:50:40;;;;;;;;;;;8.10;99.90;;;;;;4930698;29;19982;-89
2022/01/29 04:53:06;;;;;;;;;;;8.10;99.90;;;;;;4913979;29;19998;-91
2022/01/29 04:55:32;;;;;;;;;;;8.10;99.90;;;;;;4919952;29;19956;-93
2022/01/29 04:57:58;;;;;;;;;;;8.10;99.90;;;;;;4920406;29;20574;-87
2022/01/29 05:00:24;;;;;;;;;;;7.90;99.90;;;;;;4950283;28;19959;-86
2022/01/29 05:02:51;;;;;;;;;;;8.20;99.90;;;;;;4930540;29;20050;-88
2022/01/29 05:05:19;;;;;;;;;;;9.20;99.90;;;;;;4923692;29;19955;-91
2022/01/29 05:07:45;;;;;;;;;;;8.40;99.90;;;;;;4921457;29;19946;-93
2022/01/29 05:10:11;;;;;;;;;;;8.20;99.90;;;;;;4922452;29;20014;-92
2022/01/29 05:13:02;;;;;;;;;;;7.80;99.90;;;;;;4915672;29;20003;-85
2022/01/29 05:29:11;;;;;;;;;;;8.20;99.90;;;;;;4921794;29;19952;-92
2022/01/29 05:31:40;;;;;;;;;;;8.60;99.90;;;;;;4931482;29;19981;-86
2022/01/29 05:34:08;;;;;;;;;;;8.30;99.90;;;;;;4934878;29;19941;-86
2022/01/29 05:36:34;;;;;;;;;;;8.30;99.90;;;;;;4949344;29;19946;-92
2022/01/29 05:39:00;;;;;;;;;;;8.30;99.90;;;;;;4927842;29;20432;-87
2022/01/29 05:41:28;;;;;;;;;;;8.30;99.90;;;;;;4946881;29;19962;-91
2022/01/29 05:43:53;;;;;;;;;;;8.30;99.90;;;;;;4937188;29;19952;-86
2022/01/29 05:46:19;;;;;;;;;;;8.30;99.90;;;;;;4930524;29;20034;-93
2022/01/29 05:48:45;;;;;;;;;;;8.30;99.90;;;;;;4949490;28;19948;-88
2022/01/29 05:51:11;;;;;;;;;;;8.30;99.90;;;;;;4942108;29;19976;-93
2022/01/29 05:53:37;;;;;;;;;;;8.30;99.90;;;;;;4925760;29;19963;-90
2022/01/29 05:56:03;;;;;;;;;;;8.80;99.90;;;;;;4931265;29;19952;-87
2022/01/29 05:58:28;;;;;;;;;;;8.30;99.90;;;;;;4934811;29;20665;-91
2022/01/29 06:00:54;;;;;;;;;;;8.10;99.90;;;;;;4933897;29;19957;-85
2022/01/29 06:03:23;;;;;;;;;;;8.30;99.90;;;;;;4936826;29;19946;-89
2022/01/29 06:05:51;;;;;;;;;;;8.30;99.90;;;;;;4930441;29;19988;-91
2022/01/29 06:08:19;;;;;;;;;;;8.30;99.90;;;;;;4935491;29;20007;-90
2022/01/29 06:10:45;;;;;;;;;;;8.30;99.90;;;;;;4933879;29;19945;-88
2022/01/29 06:13:12;;;;;;;;;;;8.30;99.90;;;;;;4932508;29;19960;-91
2022/01/29 06:15:39;;;;;;;;;;;8.30;99.90;;;;;;4931131;29;19952;-91
2022/01/29 06:18:25;;;;;;;;;;;8.40;99.90;;;;;;4931366;29;20567;-88
2022/01/29 06:20:52;;;;;;;;;;;8.40;99.90;;;;;;4915368;29;19949;-93
2022/01/29 06:23:21;;;;;;;;;;;8.40;99.90;;;;;;4929159;29;20002;-85
2022/01/29 06:26:06;;;;;;;;;;;8.70;99.90;;;;;;4928678;29;19964;-86
2022/01/29 06:28:32;;;;;;;;;;;8.50;99.90;;;;;;4932340;29;19955;-90
2022/01/29 06:31:00;;;;;;;;;;;9.10;99.90;;;;;;4934114;29;20047;-87
2022/01/29 06:33:26;;;;;;;;;;;8.50;99.90;;;;;;4947495;28;19947;-91
2022/01/29 06:35:59;;;;;;;;;;;8.50;99.90;;;;;;4949146;29;20151;-95
2022/01/29 06:38:40;;;;;;;;;;;8.50;99.90;;;;;;4914981;29;20011;-90
2022/01/29 06:41:06;;;;;;;;;;;9.10;99.90;;;;;;4899734;29;20400;-86
2022/01/29 06:43:32;;;;;;;;;;;8.50;99.90;;;;;;4923111;29;20026;-89
2022/01/29 06:45:57;;;;;;;;;;;8.60;99.90;;;;;;4921793;29;20041;-84
2022/01/29 06:48:38;;;;;;;;;;;8.90;99.90;;;;;;4935568;29;19952;-88
2022/01/29 06:51:04;;;;;;;;;;;8.60;99.90;;;;;;4938174;29;19945;-88
2022/01/29 06:53:29;;;;;;;;;;;8.30;99.90;;;;;;4944234;29;19958;-90
2022/01/29 06:56:05;;;;;;;;;;;8.60;99.90;;;;;;4923649;29;19946;-88
2022/01/29 06:58:39;;;;;;;;;;;8.60;99.90;;;;;;4919841;29;19952;-92
2022/01/29 07:01:05;;;;;;;;;;;8.60;99.90;;;;;;4928011;29;19959;-85
2022/01/29 07:03:31;;;;;;;;;;;8.50;99.90;;;;;;4940301;29;19958;-91
2022/01/29 07:05:59;;;;;;;;;;;8.60;99.90;;;;;;4936658;29;19952;-87
2022/01/29 07:08:24;;;;;;;;;;;8.20;99.90;;;;;;4940028;29;19992;-86
2022/01/29 07:10:50;;;;;;;;;;;9.40;99.90;;;;;;4938046;29;19943;-90
2022/01/29 07:13:20;;;;;;;;;;;8.60;99.90;;;;;;4934826;29;19985;-92
2022/01/29 07:15:55;;;;;;;;;;;8.60;99.90;;;;;;4938834;29;20146;-88
2022/01/29 07:18:20;;;;;;;;;;;8.60;99.90;;;;;;4939379;29;20348;-87
2022/01/29 07:20:48;;;;;;;;;;;8.90;99.90;;;;;;4918659;29;19952;-89
2022/01/29 07:23:13;;;;;;;;;;;8.60;99.90;;;;;;4939701;28;19958;-88
2022/01/29 07:25:58;;;;;;;;;;;8.60;99.90;;;;;;4947920;28;20579;-87
2022/01/29 07:28:27;;;;;;;;;;;8.60;99.90;;;;;;4954274;29;19993;-89
2022/01/29 07:30:52;;;;;;;;;;;9.30;99.90;;;;;;4945519;29;20342;-93
2022/01/29 07:33:18;;;;;;;;;;;8.60;99.90;;;;;;4938239;29;19940;-88
2022/01/29 07:35:43;;;;;;;;;;;8.60;99.90;;;;;;4929354;29;19969;-86
2022/01/29 07:38:09;;;;;;;;;;;8.60;99.90;;;;;;4930695;29;20365;-87
2022/01/29 07:40:38;;;;;;;;;;;8.50;99.90;;;;;;4934623;29;20502;-90
2022/01/29 07:43:06;;;;;;;;;;;8.60;99.90;;;;;;4947489;29;20563;-91
2022/01/29 07:45:54;;;;;;;;;;;8.60;99.90;;;;;;4937747;29;19997;-93
2022/01/29 07:48:20;;;;;;;;;;;8.60;99.90;;;;;;4915742;29;19947;-86
2022/01/29 07:50:46;;;;;;;;;;;8.60;99.90;;;;;;4936831;29;20286;-84
2022/01/29 07:53:11;;;;;;;;;;;8.60;99.90;;;;;;4946651;28;19978;-86
2022/01/29 07:55:37;;;;;;;;;;;9.30;99.90;;;;;;4939171;29;19987;-84
2022/01/29 07:58:04;;;;;;;;;;;8.60;99.90;;;;;;4930771;29;20002;-83
2022/01/29 08:00:32;;;;;;;;;;;8.60;99.90;;;;;;4939251;29;19947;-90
2022/01/29 08:02:57;;;;;;;;;;;8.60;99.90;;;;;;4924612;29;19984;-82
2022/01/29 08:05:23;;;;;;;;;;;8.60;99.90;;;;;;4924696;29;20287;-85
2022/01/29 08:07:48;;;;;;;;;;;8.70;99.90;;;;;;4934585;29;20017;-84
2022/01/29 08:10:14;;;;;;;;;;;8.10;99.90;;;;;;4935036;29;19949;-85
2022/01/29 08:12:39;;;;;;;;;;;8.60;99.90;;;;;;4927170;29;20028;-82
2022/01/29 08:15:05;;;;;;;;;;;8.60;99.90;;;;;;4934230;29;20046;-83
2022/01/29 08:17:31;;;;;;;;;;;8.60;99.90;;;;;;4931830;29;19973;-82
2022/01/29 08:19:57;;;;;;;;;;;8.60;99.90;;;;;;4933023;29;19954;-82
2022/01/29 08:22:32;;;;;;;;;;;8.70;99.90;;;;;;4929458;29;19958;-85
2022/01/29 08:24:59;;;;;;;;;;;8.80;99.90;;;;;;4930626;29;19998;-81
2022/01/29 08:27:24;;;;;;;;;;;8.70;99.90;;;;;;4926017;29;19943;-81
2022/01/29 08:29:50;;;;;;;;;;;8.70;99.90;;;;;;4934430;29;19948;-81
2022/01/29 08:32:16;;;;;;;;;;;8.80;99.90;;;;;;4930024;29;19957;-84
2022/01/29 08:34:43;;;;;;;;;;;8.80;99.90;;;;;;4922807;29;19981;-81
2022/01/29 08:37:09;;;;;;;;;;;8.80;99.90;;;;;;4919982;29;19956;-84
2022/01/29 08:39:35;;;;;;;;;;;9.30;99.90;;;;;;4919713;29;19982;-82
2022/01/29 08:42:01;;;;;;;;;;;8.80;99.90;;;;;;4919021;29;20396;-84
2022/01/29 08:44:27;;;;;;;;;;;8.90;99.90;;;;;;4920225;29;19947;-83
2022/01/29 08:46:52;;;;;;;;;;;8.80;99.90;;;;;;4924368;29;20007;-85
2022/01/29 08:49:18;;;;;;;;;;;8.80;99.90;;;;;;4921426;29;19964;-80
2022/01/29 08:51:43;;;;;;;;;;;8.90;99.90;;;;;;4923336;29;19956;-86
2022/01/29 08:54:09;;;;;;;;;;;8.90;99.90;;;;;;4921792;29;19951;-82
2022/01/29 08:56:35;;;;;;;;;;;8.90;99.90;;;;;;4922019;29;20032;-81
2022/01/29 08:59:00;;;;;;;;;;;8.90;99.90;;;;;;4923172;29;20091;-83
2022/01/29 09:01:26;;;;;;;;;;;9.00;99.90;;;;;;4922605;29;20507;-84
2022/01/29 09:03:51;;;;;;;;;;;9.00;99.90;;;;;;4922558;29;20091;-82
2022/01/29 09:06:17;;;;;;;;;;;9.00;99.90;;;;;;4921985;29;19951;-82
2022/01/29 09:08:46;;;;;;;;;;;9.00;99.90;;;;;;4923862;29;19951;-82
2022/01/29 09:11:15;;;;;;;;;;;9.10;99.90;;;;;;4937476;28;19950;-81
2022/01/29 09:13:44;;;;;;;;;;;9.10;99.90;;;;;;4924647;29;20364;-89
2022/01/29 09:16:10;;;;;;;;;;;9.10;99.90;;;;;;4918563;29;19962;-86
2022/01/29 09:18:35;;;;;;;;;;;9.20;99.90;;;;;;4927118;29;20128;-86
2022/01/29 09:21:01;;;;;;;;;;;9.20;99.90;;;;;;4922932;29;19970;-84
2022/01/29 09:23:26;;;;;;;;;;;9.20;99.90;;;;;;4922238;29;20223;-83
2022/01/29 09:25:52;;;;;;;;;;;9.20;99.90;;;;;;4923570;29;19966;-86
2022/01/29 09:28:21;;;;;;;;;;;9.20;99.90;;;;;;4928551;29;19961;-85
2022/01/29 09:30:46;;;;;;;;;;;9.30;99.90;;;;;;4926241;29;19943;-81
2022/01/29 09:33:12;;;;;;;;;;;9.20;99.90;;;;;;4923512;29;19992;-83
2022/01/29 09:35:41;;;;;;;;;;;9.20;99.90;;;;;;4934925;29;19947;-86
2022/01/29 09:38:07;;;;;;;;;;;9.30;99.90;;;;;;4920684;29;19947;-83
2022/01/29 09:40:33;;;;;;;;;;;9.30;99.90;;;;;;4929451;29;19946;-82
2022/01/29 09:43:01;;;;;;;;;;;9.30;99.90;;;;;;4926105;29;19978;-86
2022/01/29 09:45:26;;;;;;;;;;;9.30;99.90;;;;;;4928766;29;19954;-83
2022/01/29 09:48:01;;;;;;;;;;;9.30;99.90;;;;;;4944910;28;19961;-85
2022/01/29 09:50:27;;;;;;;;;;;9.60;99.90;;;;;;4931545;29;19959;-84
2022/01/29 09:52:53;;;;;;;;;;;9.40;99.90;;;;;;4929512;29;20045;-84
2022/01/29 09:55:19;;;;;;;;;;;9.40;99.90;;;;;;4931587;29;20013;-89
2022/01/29 09:57:44;;;;;;;;;;;9.40;99.90;;;;;;4929342;29;19945;-85
2022/01/29 10:00:12;;;;;;;;;;;10.20;99.90;;;;;;4926376;29;20003;-87
2022/01/29 10:02:38;;;;;;;;;;;9.50;99.90;;;;;;4926586;29;19988;-85
2022/01/29 10:05:04;;;;;;;;;;;9.50;99.90;;;;;;4928154;29;20021;-83
2022/01/29 10:07:30;;;;;;;;;;;9.50;99.90;;;;;;4927326;29;19954;-86
2022/01/29 10:09:58;;;;;;;;;;;9.50;99.90;;;;;;4927351;29;19954;-84
2022/01/29 10:12:26;;;;;;;;;;;9.50;99.90;;;;;;4929926;29;20595;-87
2022/01/29 10:14:56;;;;;;;;;;;9.50;99.90;;;;;;4927992;29;19956;-83
2022/01/29 10:17:40;;;;;;;;;;;9.60;99.90;;;;;;4930276;29;20033;-88
2022/01/29 10:20:16;;;;;;;;;;;9.60;99.90;;;;;;4931746;29;19950;-84
2022/01/29 10:22:44;;;;;;;;;;;9.60;99.90;;;;;;4927940;29;19978;-83
2022/01/29 10:25:11;;;;;;;;;;;9.60;99.90;;;;;;4932665;29;20300;-83
2022/01/29 10:27:37;;;;;;;;;;;10.20;99.90;;;;;;4933386;29;20021;-90
2022/01/29 10:30:03;;;;;;;;;;;9.60;99.90;;;;;;4928576;29;19946;-88
2022/01/29 10:32:29;;;;;;;;;;;9.60;99.90;;;;;;4928519;29;20045;-83
2022/01/29 10:34:55;;;;;;;;;;;9.60;99.90;;;;;;4929681;29;20037;-88
2022/01/29 10:37:23;;;;;;;;;;;9.70;99.90;;;;;;4929061;29;19949;-87
2022/01/29 10:39:53;;;;;;;;;;;11.60;99.90;;;;;;4929422;29;19949;-83
2022/01/29 10:42:18;;;;;;;;;;;9.70;99.90;;;;;;4929467;29;19962;-85
2022/01/29 10:44:45;;;;;;;;;;;9.70;99.90;;;;;;4938710;29;19948;-93
2022/01/29 10:47:11;;;;;;;;;;;9.80;99.90;;;;;;4935744;29;19954;-86
2022/01/29 10:49:44;;;;;;;;;;;9.70;99.90;;;;;;4934160;29;19960;-88
2022/01/29 10:52:10;;;;;;;;;;;9.80;99.90;;;;;;4929913;29;19973;-84
2022/01/29 10:54:37;;;;;;;;;;;9.90;99.90;;;;;;4927604;29;20016;-85
2022/01/29 10:57:04;;;;;;;;;;;10.00;99.90;;;;;;4924825;29;20001;-84
2022/01/29 10:59:31;;;;;;;;;;;9.80;99.90;;;;;;4925950;29;19948;-81
2022/01/29 11:01:58;;;;;;;;;;;9.90;99.90;;;;;;4923124;29;20023;-86
2022/01/29 11:04:26;;;;;;;;;;;10.40;99.90;;;;;;4949981;28;20660;-87
2022/01/29 11:06:52;;;;;;;;;;;11.10;99.90;;;;;;4928004;29;20012;-85
2022/01/29 11:09:18;;;;;;;;;;;9.90;99.90;;;;;;4936485;29;19949;-84
2022/01/29 11:11:45;;;;;;;;;;;9.60;99.90;;;;;;4932480;29;20016;-89
2022/01/29 11:14:12;;;;;;;;;;;9.90;99.90;;;;;;4937528;29;19996;-87
2022/01/29 11:16:38;;;;;;;;;;;9.90;99.90;;;;;;4921341;29;20026;-90
2022/01/29 11:19:04;;;;;;;;;;;10.50;99.90;;;;;;4929279;29;19968;-88
2022/01/29 11:21:30;;;;;;;;;;;9.90;99.90;;;;;;4929611;29;20410;-83
2022/01/29 11:23:56;;;;;;;;;;;9.90;99.90;;;;;;4923405;29;19953;-85
2022/01/29 11:26:21;;;;;;;;;;;9.90;99.90;;;;;;4930760;29;19947;-91
2022/01/29 11:28:47;;;;;;;;;;;9.90;99.90;;;;;;4930857;29;19960;-89
2022/01/29 11:31:16;;;;;;;;;;;9.90;99.90;;;;;;4942321;29;20046;-89
2022/01/29 11:33:59;;;;;;;;;;;11.30;99.90;;;;;;4939471;29;21422;-95
2022/01/29 11:36:44;;;;;;;;;;;10.60;99.90;;;;;;4931803;29;20070;-86
2022/01/29 11:39:19;;;;;;;;;;;10.00;99.90;;;;;;4931081;29;19950;-86
2022/01/29 11:41:44;;;;;;;;;;;10.00;99.90;;;;;;4931084;29;19968;-92
2022/01/29 11:44:26;;;;;;;;;;;10.00;99.90;;;;;;4932934;29;20044;-87
2022/01/29 11:46:51;;;;;;;;;;;10.00;99.90;;;;;;4934730;29;19956;-89
2022/01/29 11:49:17;;;;;;;;;;;10.00;99.90;;;;;;4936625;29;20047;-82
2022/01/29 11:51:44;;;;;;;;;;;10.00;99.90;;;;;;4932359;29;20361;-91
2022/01/29 11:54:14;;;;;;;;;;;10.10;99.90;;;;;;4922938;29;19975;-87
2022/01/29 11:56:44;;;;;;;;;;;10.10;99.90;;;;;;4933227;29;19941;-92
2022/01/29 11:59:28;;;;;;;;;;;10.10;99.90;;;;;;4929238;29;20020;-92
2022/01/29 12:01:58;;;;;;;;;;;10.10;99.90;;;;;;4943985;29;20094;-92
2022/01/29 12:04:43;;;;;;;;;;;10.20;99.90;;;;;;4939686;29;19964;-92
2022/01/29 12:09:44;;;;;;;;;;;10.30;99.90;;;;;;4936538;29;20299;-92
2022/01/29 12:12:13;;;;;;;;;;;10.30;99.90;;;;;;4932591;29;20047;-92
2022/01/29 12:14:39;;;;;;;;;;;10.30;99.90;;;;;;4943586;29;19947;-95
2022/01/29 12:17:05;;;;;;;;;;;10.40;99.90;;;;;;4936673;29;20468;-89
2022/01/29 12:19:38;;;;;;;;;;;10.40;99.90;;;;;;4939140;29;20037;-86
2022/01/29 12:22:11;;;;;;;;;;;10.50;99.90;;;;;;4920398;29;19969;-89
2022/01/29 12:24:37;;;;;;;;;;;10.60;99.90;;;;;;4925142;29;20062;-93
2022/01/29 12:27:03;;;;;;;;;;;10.60;99.90;;;;;;4920836;29;19953;-86
2022/01/29 12:29:29;;;;;;;;;;;10.60;99.90;;;;;;4920310;29;19983;-86
2022/01/29 12:31:57;;;;;;;;;;;10.60;99.90;;;;;;4926391;29;19978;-92
2022/01/29 12:34:22;;;;;;;;;;;10.60;99.90;;;;;;4922088;29;20426;-86
2022/01/29 12:36:48;;;;;;;;;;;10.60;99.90;;;;;;4920709;29;19952;-90
2022/01/29 12:39:22;;;;;;;;;;;10.70;99.90;;;;;;4922355;29;19974;-91
2022/01/29 12:42:01;;;;;;;;;;;10.70;99.90;;;;;;4920261;29;20013;-86
2022/01/29 12:44:27;;;;;;;;;;;10.70;99.90;;;;;;4916002;29;20073;-94
2022/01/29 12:46:52;;;;;;;;;;;10.70;99.90;;;;;;4923557;29;20433;-88
2022/01/29 12:49:17;;;;;;;;;;;10.70;99.90;;;;;;4930743;29;19962;-87
2022/01/29 12:51:52;;;;;;;;;;;10.80;99.90;;;;;;4913705;29;20008;-87
2022/01/29 12:54:18;;;;;;;;;;;10.80;99.90;;;;;;4939298;29;19956;-92
2022/01/29 12:56:44;;;;;;;;;;;10.80;99.90;;;;;;4953056;28;20466;-89
2022/01/29 12:59:11;;;;;;;;;;;10.80;99.90;;;;;;4926893;29;19978;-87
2022/01/29 13:01:38;;;;;;;;;;;10.80;99.90;;;;;;4917384;29;20029;-90
2022/01/29 13:04:07;;;;;;;;;;;10.80;99.90;;;;;;4918579;29;19953;-88
2022/01/29 13:06:33;;;;;;;;;;;10.80;99.90;;;;;;4926835;29;19948;-93
2022/01/29 13:09:18;;;;;;;;;;;10.70;99.90;;;;;;4936011;29;19968;-91
2022/01/29 13:11:45;;;;;;;;;;;10.70;99.90;;;;;;4933769;29;19953;-90
2022/01/29 13:14:15;;;;;;;;;;;11.00;99.90;;;;;;4931846;29;19964;-88
2022/01/29 13:16:41;;;;;;;;;;;10.70;99.90;;;;;;4925339;29;19956;-92
2022/01/29 13:19:06;;;;;;;;;;;11.20;99.90;;;;;;4918159;29;20032;-89
2022/01/29 13:21:33;;;;;;;;;;;10.40;99.90;;;;;;4919863;29;19967;-93
2022/01/29 13:24:00;;;;;;;;;;;10.80;99.90;;;;;;4919221;29;19987;-89
2022/01/29 13:26:29;;;;;;;;;;;10.80;99.90;;;;;;4922885;29;19953;-85
2022/01/29 13:29:08;;;;;;;;;;;10.90;99.90;;;;;;4923237;29;19961;-91
2022/01/29 13:31:46;;;;;;;;;;;10.90;99.90;;;;;;4941249;29;19945;-89
2022/01/29 13:34:28;;;;;;;;;;;11.00;99.90;;;;;;4944739;29;19955;-84
2022/01/29 13:36:54;;;;;;;;;;;11.00;99.90;;;;;;4929203;29;19962;-92
2022/01/29 13:39:20;;;;;;;;;;;11.10;99.90;;;;;;4938295;29;20277;-89
2022/01/29 13:41:45;;;;;;;;;;;11.10;99.90;;;;;;4928943;29;19974;-87
2022/01/29 13:44:11;;;;;;;;;;;11.10;99.90;;;;;;4934440;29;20085;-90
2022/01/29 13:46:37;;;;;;;;;;;11.10;99.90;;;;;;4944833;29;20026;-91
2022/01/29 13:49:04;;;;;;;;;;;11.10;99.90;;;;;;4945088;29;19958;-93
2022/01/29 13:51:38;;;;;;;;;;;11.10;99.90;;;;;;4947588;29;20458;-85
2022/01/29 13:54:05;;;;;;;;;;;11.10;99.90;;;;;;4930014;29;19974;-90
2022/01/29 13:56:32;;;;;;;;;;;11.10;99.90;;;;;;4929436;29;19998;-96
2022/01/29 13:58:59;;;;;;;;;;;11.10;99.90;;;;;;4938915;29;20440;-93
2022/01/29 14:01:32;;;;;;;;;;;11.10;99.90;;;;;;4946166;29;19972;-94
2022/01/29 14:03:58;;;;;;;;;;;11.10;99.90;;;;;;4937668;29;19954;-92
2022/01/29 14:06:30;;;;;;;;;;;11.10;99.90;;;;;;4932724;29;19949;-87
2022/01/29 14:09:08;;;;;;;;;;;11.10;99.90;;;;;;4925555;29;19956;-87
2022/01/29 14:11:52;;;;;;;;;;;11.10;99.90;;;;;;4929072;29;19955;-91
2022/01/29 14:14:18;;;;;;;;;;;11.00;99.90;;;;;;4933377;29;19960;-93
2022/01/29 14:16:43;;;;;;;;;;;11.00;99.90;;;;;;4930124;29;20028;-88
2022/01/29 14:19:15;;;;;;;;;;;11.10;99.90;;;;;;4932188;29;19979;-94
2022/01/29 14:21:41;;;;;;;;;;;11.10;99.90;;;;;;4935383;29;20070;-91
2022/01/29 14:24:06;;;;;;;;;;;11.10;99.90;;;;;;4930510;29;20081;-86
2022/01/29 14:26:35;;;;;;;;;;;11.10;99.90;;;;;;4926100;29;20059;-88
2022/01/29 14:29:00;;;;;;;;;;;11.10;99.90;;;;;;4924386;29;19954;-93
2022/01/29 14:31:26;;;;;;;;;;;11.10;99.90;;;;;;4929574;29;19966;-90
2022/01/29 14:33:51;;;;;;;;;;;11.10;99.90;;;;;;4921932;29;20045;-88
2022/01/29 14:36:17;;;;;;;;;;;11.20;99.90;;;;;;4933770;29;20115;-84
2022/01/29 14:38:42;;;;;;;;;;;11.20;99.90;;;;;;4937091;29;20029;-92
2022/01/29 14:41:08;;;;;;;;;;;11.40;99.90;;;;;;4938361;29;20038;-92
2022/01/29 14:43:34;;;;;;;;;;;11.20;99.90;;;;;;4936362;29;20306;-91
2022/01/29 14:46:00;;;;;;;;;;;11.10;99.90;;;;;;4929670;29;19954;-85
2022/01/29 14:48:26;;;;;;;;;;;11.10;99.90;;;;;;4928110;29;19967;-85
2022/01/29 14:50:52;;;;;;;;;;;11.10;99.90;;;;;;4927937;29;20081;-91
2022/01/29 14:53:19;;;;;;;;;;;11.10;99.90;;;;;;4936617;29;19957;-88